Time;durP1;ratioP1;P1;durP2;ratioP2;P2;SDS_P1;SDS_P2;PMS_P1;PMS_P2;Temp;Humidity;BMP_temperature;BMP_pressure;BME280_temperature;BME280_humidity;BME280_pressure;Samples;Min_cycle;Max_cycle;Signal;HPM_P1;HPM_P2
2021/10/15 00:02:11;;;;;;;6.68;0.80;;;;;;;;;;4964787;28;20098;-57
2021/10/15 00:04:37;;;;;;;3.78;0.65;;;;;;;;;;4951044;28;21406;-56
2021/10/15 00:07:03;;;;;;;1.98;0.50;;;;;;;;;;4951190;28;20047;-56
2021/10/15 00:09:29;;;;;;;3.60;0.60;;;;;;;;;;4950979;28;20066;-55
2021/10/15 00:11:55;;;;;;;1.33;0.40;;;;;;;;;;4951756;28;20035;-55
2021/10/15 00:14:21;;;;;;;3.47;0.57;;;;;;;;;;4952433;28;20138;-56
2021/10/15 00:16:47;;;;;;;2.17;0.60;;;;;;;;;;4949768;28;20046;-56
2021/10/15 00:19:13;;;;;;;1.48;0.55;;;;;;;;;;4951665;28;20158;-56
2021/10/15 00:21:38;;;;;;;5.53;0.80;;;;;;;;;;4950822;28;20491;-56
2021/10/15 00:24:04;;;;;;;2.10;0.50;;;;;;;;;;4964869;28;20039;-54
2021/10/15 00:26:30;;;;;;;1.02;0.40;;;;;;;;;;4948777;28;20038;-56
2021/10/15 00:28:56;;;;;;;1.20;0.50;;;;;;;;;;4952138;28;20039;-53
2021/10/15 00:31:22;;;;;;;6.13;0.60;;;;;;;;;;4949815;28;20039;-56
2021/10/15 00:33:48;;;;;;;1.63;0.45;;;;;;;;;;4951143;28;20097;-53
2021/10/15 00:36:13;;;;;;;1.15;0.40;;;;;;;;;;4950468;28;20051;-56
2021/10/15 00:38:39;;;;;;;2.67;0.60;;;;;;;;;;4949703;28;20051;-55
2021/10/15 00:41:05;;;;;;;2.20;0.60;;;;;;;;;;4952339;28;20046;-56
2021/10/15 00:43:31;;;;;;;3.20;0.45;;;;;;;;;;4951210;28;20122;-55
2021/10/15 00:45:57;;;;;;;4.65;0.63;;;;;;;;;;4949846;28;20046;-54
2021/10/15 00:48:23;;;;;;;3.65;0.60;;;;;;;;;;4948902;28;20043;-55
2021/10/15 00:50:49;;;;;;;2.08;0.60;;;;;;;;;;4950412;28;20070;-56
2021/10/15 00:53:15;;;;;;;1.38;0.50;;;;;;;;;;4951144;28;20154;-56
2021/10/15 00:55:42;;;;;;;2.67;0.70;;;;;;;;;;4950835;28;20448;-56
2021/10/15 00:58:08;;;;;;;2.05;0.60;;;;;;;;;;4950324;28;20047;-54
2021/10/15 01:00:34;;;;;;;2.08;0.70;;;;;;;;;;4950254;28;20102;-54
2021/10/15 01:03:00;;;;;;;1.08;0.40;;;;;;;;;;4950731;28;20149;-56
2021/10/15 01:05:26;;;;;;;3.25;0.68;;;;;;;;;;4953120;28;20066;-54
2021/10/15 01:07:53;;;;;;;2.15;0.70;;;;;;;;;;4950294;28;20139;-52
2021/10/15 01:10:19;;;;;;;1.25;0.50;;;;;;;;;;4954047;28;20039;-55
2021/10/15 01:12:45;;;;;;;2.40;0.70;;;;;;;;;;4954226;28;20115;-56
2021/10/15 01:15:11;;;;;;;2.15;0.60;;;;;;;;;;4954113;28;20049;-55
2021/10/15 01:17:37;;;;;;;1.55;0.50;;;;;;;;;;4952242;28;20129;-56
2021/10/15 01:20:03;;;;;;;1.27;0.50;;;;;;;;;;4954748;28;20031;-55
2021/10/15 01:22:29;;;;;;;1.60;0.57;;;;;;;;;;4954562;28;20071;-56
2021/10/15 01:24:56;;;;;;;3.08;0.70;;;;;;;;;;4956409;28;22630;-54
2021/10/15 01:27:22;;;;;;;1.80;0.50;;;;;;;;;;4952717;28;20043;-55
2021/10/15 01:29:48;;;;;;;1.63;0.50;;;;;;;;;;4955211;28;20479;-55
2021/10/15 01:32:14;;;;;;;1.65;0.60;;;;;;;;;;4953858;28;20043;-54
2021/10/15 01:34:40;;;;;;;4.20;0.70;;;;;;;;;;4954530;28;20579;-56
2021/10/15 01:37:06;;;;;;;1.42;0.45;;;;;;;;;;4954892;28;20101;-56
2021/10/15 01:39:32;;;;;;;7.25;0.73;;;;;;;;;;4968218;28;20387;-56
2021/10/15 01:41:58;;;;;;;2.03;0.70;;;;;;;;;;4954555;28;20034;-55
2021/10/15 01:44:24;;;;;;;6.07;0.93;;;;;;;;;;4952527;28;20049;-55
2021/10/15 01:46:50;;;;;;;2.42;0.75;;;;;;;;;;4953935;28;20034;-56
2021/10/15 01:49:15;;;;;;;2.08;0.68;;;;;;;;;;4954212;28;20057;-55
2021/10/15 01:51:41;;;;;;;2.10;0.65;;;;;;;;;;4953636;28;20051;-55
2021/10/15 01:54:07;;;;;;;3.58;0.70;;;;;;;;;;4953697;28;20385;-56
2021/10/15 01:56:34;;;;;;;1.33;0.50;;;;;;;;;;4952540;28;20119;-55
2021/10/15 01:59:00;;;;;;;2.08;0.63;;;;;;;;;;4953974;28;20067;-56
2021/10/15 02:01:26;;;;;;;9.00;0.90;;;;;;;;;;4953041;28;20051;-55
2021/10/15 02:03:52;;;;;;;2.42;0.68;;;;;;;;;;4952299;28;20104;-55
2021/10/15 02:06:18;;;;;;;1.35;0.50;;;;;;;;;;4951724;28;20039;-55
2021/10/15 02:08:44;;;;;;;2.25;0.63;;;;;;;;;;4953028;28;20085;-55
2021/10/15 02:11:10;;;;;;;2.28;0.60;;;;;;;;;;4951541;28;20043;-56
2021/10/15 02:13:36;;;;;;;2.45;0.60;;;;;;;;;;4963486;28;20054;-56
2021/10/15 02:16:02;;;;;;;2.40;0.80;;;;;;;;;;4953793;28;20263;-56
2021/10/15 02:18:27;;;;;;;1.75;0.60;;;;;;;;;;4951470;28;20491;-55
2021/10/15 02:20:53;;;;;;;2.08;0.70;;;;;;;;;;4954277;28;20047;-55
2021/10/15 02:23:19;;;;;;;2.13;0.70;;;;;;;;;;4953369;28;20043;-55
2021/10/15 02:25:45;;;;;;;1.52;0.60;;;;;;;;;;4952111;28;20050;-56
2021/10/15 02:28:11;;;;;;;2.00;0.60;;;;;;;;;;4959047;28;20073;-55
2021/10/15 02:30:36;;;;;;;2.15;0.73;;;;;;;;;;4953271;28;20059;-54
2021/10/15 02:33:03;;;;;;;2.42;0.70;;;;;;;;;;4952607;28;20031;-55
2021/10/15 02:35:29;;;;;;;2.53;0.57;;;;;;;;;;4951559;28;20114;-54
2021/10/15 02:38:00;;;;;;;2.35;0.75;;;;;;;;;;4951191;28;20047;-55
2021/10/15 02:40:26;;;;;;;2.92;0.77;;;;;;;;;;4953036;28;20073;-52
2021/10/15 02:42:52;;;;;;;1.90;0.68;;;;;;;;;;4952951;28;20042;-56
2021/10/15 02:45:18;;;;;;;2.13;0.65;;;;;;;;;;4953127;28;20042;-55
2021/10/15 02:47:43;;;;;;;3.05;0.75;;;;;;;;;;4945231;28;20039;-53
2021/10/15 02:50:09;;;;;;;1.60;0.50;;;;;;;;;;4951869;28;20065;-53
2021/10/15 02:52:35;;;;;;;1.67;0.60;;;;;;;;;;4952966;28;20146;-53
2021/10/15 02:55:01;;;;;;;2.30;0.60;;;;;;;;;;4951461;28;20036;-55
2021/10/15 02:57:27;;;;;;;2.10;0.60;;;;;;;;;;4951223;28;20058;-54
2021/10/15 02:59:53;;;;;;;1.75;0.50;;;;;;;;;;4953321;28;20109;-53
2021/10/15 03:02:18;;;;;;;2.13;0.60;;;;;;;;;;4951779;28;20138;-55
2021/10/15 03:04:44;;;;;;;1.40;0.50;;;;;;;;;;4952263;28;20047;-55
2021/10/15 03:07:10;;;;;;;1.83;0.57;;;;;;;;;;4950693;28;20504;-54
2021/10/15 03:09:36;;;;;;;2.53;0.80;;;;;;;;;;4950678;28;20058;-51
2021/10/15 03:12:02;;;;;;;2.83;0.70;;;;;;;;;;4949477;28;20039;-55
2021/10/15 03:14:28;;;;;;;1.45;0.70;;;;;;;;;;4951023;28;20515;-52
2021/10/15 03:16:53;;;;;;;2.63;0.77;;;;;;;;;;4952188;28;20043;-55
2021/10/15 03:19:19;;;;;;;2.17;0.60;;;;;;;;;;4951161;28;21727;-53
2021/10/15 03:21:45;;;;;;;2.35;0.73;;;;;;;;;;4951724;28;20114;-52
2021/10/15 03:24:11;;;;;;;1.98;0.68;;;;;;;;;;4952851;28;20051;-52
2021/10/15 03:26:37;;;;;;;2.22;0.60;;;;;;;;;;4952301;28;20114;-53
2021/10/15 03:29:03;;;;;;;1.90;0.65;;;;;;;;;;4965425;28;20787;-54
2021/10/15 03:31:29;;;;;;;2.00;0.70;;;;;;;;;;4951835;28;20075;-54
2021/10/15 03:33:54;;;;;;;2.17;0.70;;;;;;;;;;4952770;28;20034;-53
2021/10/15 03:36:20;;;;;;;2.30;0.70;;;;;;;;;;4950612;28;20129;-54
2021/10/15 03:38:46;;;;;;;2.47;0.80;;;;;;;;;;4951131;28;20051;-54
2021/10/15 03:41:12;;;;;;;1.45;0.50;;;;;;;;;;4958917;28;20058;-54
2021/10/15 03:43:38;;;;;;;1.98;0.60;;;;;;;;;;4970047;28;20089;-53
2021/10/15 03:46:04;;;;;;;2.03;0.60;;;;;;;;;;4971287;28;20042;-55
2021/10/15 03:48:30;;;;;;;4.10;0.70;;;;;;;;;;4970407;28;20050;-55
2021/10/15 03:50:56;;;;;;;2.47;0.70;;;;;;;;;;4970071;28;20899;-53
2021/10/15 03:53:21;;;;;;;2.25;0.75;;;;;;;;;;4969429;28;20097;-53
2021/10/15 03:55:48;;;;;;;1.88;0.60;;;;;;;;;;4960062;28;20515;-54
2021/10/15 03:58:14;;;;;;;1.83;0.68;;;;;;;;;;4950350;28;20054;-54
2021/10/15 04:00:40;;;;;;;1.75;0.57;;;;;;;;;;4951067;28;20518;-54
2021/10/15 04:03:06;;;;;;;1.98;0.60;;;;;;;;;;4952556;28;20086;-52
2021/10/15 04:05:32;;;;;;;2.00;0.60;;;;;;;;;;4952479;28;20126;-54
2021/10/15 04:07:58;;;;;;;4.55;0.70;;;;;;;;;;4951222;28;20042;-55
2021/10/15 04:10:24;;;;;;;3.13;0.80;;;;;;;;;;4951748;28;20054;-55
2021/10/15 04:12:50;;;;;;;2.83;0.70;;;;;;;;;;4951046;28;20436;-55
2021/10/15 04:15:16;;;;;;;2.05;0.68;;;;;;;;;;4960821;28;20046;-54
2021/10/15 04:17:42;;;;;;;1.75;0.60;;;;;;;;;;4950504;28;20062;-52
2021/10/15 04:20:09;;;;;;;1.45;0.60;;;;;;;;;;4952393;28;20046;-55
2021/10/15 04:22:35;;;;;;;1.88;0.63;;;;;;;;;;4951573;28;20050;-55
2021/10/15 04:25:01;;;;;;;2.22;0.80;;;;;;;;;;4952162;28;20540;-55
2021/10/15 04:27:27;;;;;;;2.67;0.68;;;;;;;;;;4951658;28;20070;-53
2021/10/15 04:29:52;;;;;;;3.05;0.90;;;;;;;;;;4951623;28;20364;-52
2021/10/15 04:32:18;;;;;;;3.72;0.85;;;;;;;;;;4947975;28;20095;-54
2021/10/15 04:34:44;;;;;;;3.03;1.05;;;;;;;;;;4951210;28;20938;-51
2021/10/15 04:37:10;;;;;;;2.85;0.90;;;;;;;;;;4950861;28;20038;-53
2021/10/15 04:39:36;;;;;;;2.85;1.10;;;;;;;;;;4960316;28;20039;-51
2021/10/15 04:42:02;;;;;;;8.70;1.23;;;;;;;;;;4972399;28;20119;-51
2021/10/15 04:44:28;;;;;;;5.07;0.98;;;;;;;;;;4987796;28;20042;-55
2021/10/15 04:46:53;;;;;;;2.10;0.80;;;;;;;;;;4972399;28;20034;-55
2021/10/15 04:49:19;;;;;;;2.90;0.90;;;;;;;;;;4973066;28;20121;-55
2021/10/15 04:51:46;;;;;;;3.75;0.90;;;;;;;;;;4972992;28;20058;-55
2021/10/15 04:54:11;;;;;;;3.28;0.85;;;;;;;;;;4973866;28;20050;-54
2021/10/15 04:56:37;;;;;;;2.42;0.63;;;;;;;;;;4970662;28;20043;-53
2021/10/15 04:59:03;;;;;;;2.38;0.73;;;;;;;;;;4953983;28;20058;-54
2021/10/15 05:01:29;;;;;;;6.50;0.60;;;;;;;;;;4953398;28;20451;-54
2021/10/15 05:03:55;;;;;;;2.80;0.90;;;;;;;;;;4967880;28;20049;-54
2021/10/15 05:06:20;;;;;;;2.20;0.77;;;;;;;;;;4971789;28;20043;-55
2021/10/15 05:11:37;;;;;;;2.22;0.70;;;;;;;;;;4947839;28;20101;-55
2021/10/15 05:14:03;;;;;;;1.83;0.60;;;;;;;;;;4955237;28;20062;-53
2021/10/15 05:16:29;;;;;;;1.90;0.60;;;;;;;;;;4952951;28;20473;-51
2021/10/15 05:18:55;;;;;;;3.10;0.70;;;;;;;;;;4953401;28;20054;-51
2021/10/15 05:21:20;;;;;;;2.20;0.60;;;;;;;;;;4952028;28;20039;-54
2021/10/15 05:23:46;;;;;;;2.72;0.88;;;;;;;;;;4952471;28;21076;-54
2021/10/15 05:26:12;;;;;;;1.98;0.60;;;;;;;;;;4952462;28;20130;-52
2021/10/15 05:28:38;;;;;;;1.85;0.68;;;;;;;;;;4953029;28;20503;-53
2021/10/15 05:31:04;;;;;;;2.42;0.85;;;;;;;;;;4954337;28;20039;-51
2021/10/15 05:33:29;;;;;;;2.38;0.90;;;;;;;;;;4953917;28;20043;-56
2021/10/15 05:35:55;;;;;;;2.22;0.70;;;;;;;;;;4958185;28;20235;-53
2021/10/15 05:38:21;;;;;;;2.35;0.70;;;;;;;;;;4970314;28;20062;-54
2021/10/15 05:40:47;;;;;;;2.35;0.70;;;;;;;;;;4952830;28;20042;-54
2021/10/15 05:43:13;;;;;;;1.83;0.55;;;;;;;;;;4955046;28;20377;-53
2021/10/15 05:45:38;;;;;;;5.75;0.60;;;;;;;;;;4952738;28;20050;-53
2021/10/15 05:48:05;;;;;;;1.83;0.60;;;;;;;;;;4953586;28;20031;-52
2021/10/15 05:50:31;;;;;;;1.77;0.60;;;;;;;;;;4953557;28;20066;-53
2021/10/15 05:53:05;;;;;;;2.83;0.77;;;;;;;;;;4952932;28;20522;-53
2021/10/15 05:55:44;;;;;;;1.60;0.60;;;;;;;;;;4953144;28;20644;-52
2021/10/15 06:00:54;;;;;;;1.80;0.60;;;;;;;;;;4953517;28;20049;-53
2021/10/15 06:03:24;;;;;;;1.77;0.60;;;;;;;;;;4953296;28;20043;-54
2021/10/15 06:16:34;;;;;;;1.77;0.60;;;;;;;;;;4952693;28;20046;-51
2021/10/15 06:19:08;;;;;;;1.92;0.55;;;;;;;;;;4952809;28;20046;-53
2021/10/15 06:21:34;;;;;;;2.03;0.73;;;;;;;;;;4954657;28;20053;-51
2021/10/15 06:24:00;;;;;;;1.60;0.52;;;;;;;;;;4954136;28;20420;-53
2021/10/15 06:26:26;;;;;;;1.45;0.50;;;;;;;;;;4951939;28;20039;-54
2021/10/15 06:28:52;;;;;;;2.20;0.60;;;;;;;;;;4953180;28;20560;-50
2021/10/15 06:31:17;;;;;;;1.63;0.57;;;;;;;;;;4953138;28;20444;-50
2021/10/15 06:33:43;;;;;;;2.58;0.73;;;;;;;;;;4952457;28;20047;-53
2021/10/15 06:36:09;;;;;;;1.95;0.63;;;;;;;;;;4950949;28;20039;-53
2021/10/15 06:38:35;;;;;;;3.33;0.80;;;;;;;;;;4953383;28;20528;-52
2021/10/15 06:41:01;;;;;;;1.92;0.70;;;;;;;;;;4953504;28;20070;-52
2021/10/15 06:43:27;;;;;;;4.68;0.70;;;;;;;;;;4952632;28;20066;-50
2021/10/15 06:45:52;;;;;;;1.77;0.60;;;;;;;;;;4952527;28;20081;-53
2021/10/15 06:48:18;;;;;;;1.73;0.70;;;;;;;;;;4951874;28;20057;-54
2021/10/15 06:50:44;;;;;;;2.90;0.80;;;;;;;;;;4953225;28;20035;-54
2021/10/15 06:53:11;;;;;;;2.70;0.90;;;;;;;;;;4951307;28;20039;-54
2021/10/15 06:55:36;;;;;;;1.90;0.63;;;;;;;;;;4954511;28;20045;-51
2021/10/15 06:58:03;;;;;;;2.20;0.73;;;;;;;;;;4971766;28;20049;-53
2021/10/15 07:00:29;;;;;;;2.47;0.65;;;;;;;;;;4970369;28;20052;-52
2021/10/15 07:02:55;;;;;;;2.30;0.70;;;;;;;;;;4969173;28;20039;-52
2021/10/15 07:05:21;;;;;;;2.47;0.75;;;;;;;;;;4972803;28;20049;-52
2021/10/15 07:07:46;;;;;;;2.20;0.68;;;;;;;;;;4952044;28;20110;-52
2021/10/15 07:10:12;;;;;;;1.38;0.55;;;;;;;;;;4953383;28;20058;-53
2021/10/15 07:12:43;;;;;;;2.55;0.60;;;;;;;;;;4950880;28;20431;-51
2021/10/15 07:15:10;;;;;;;3.20;0.73;;;;;;;;;;4952234;28;20043;-51
2021/10/15 07:17:35;;;;;;;1.67;0.60;;;;;;;;;;4950564;28;20054;-54
2021/10/15 07:20:02;;;;;;;1.67;0.65;;;;;;;;;;4951921;28;20043;-54
2021/10/15 07:22:27;;;;;;;1.95;0.65;;;;;;;;;;4950321;28;20042;-55
2021/10/15 07:24:53;;;;;;;1.92;0.63;;;;;;;;;;4951570;28;20054;-52
2021/10/15 07:27:19;;;;;;;2.33;0.60;;;;;;;;;;4950033;28;20728;-54
2021/10/15 07:29:45;;;;;;;2.45;0.80;;;;;;;;;;4951016;28;20579;-51
2021/10/15 07:32:11;;;;;;;4.63;0.75;;;;;;;;;;4950256;28;20039;-53
2021/10/15 07:34:37;;;;;;;2.63;0.80;;;;;;;;;;4951088;28;20443;-53
2021/10/15 07:37:03;;;;;;;1.63;0.65;;;;;;;;;;4950296;28;20038;-54
2021/10/15 07:39:29;;;;;;;2.50;0.60;;;;;;;;;;4949404;28;20109;-51
2021/10/15 07:41:55;;;;;;;1.60;0.52;;;;;;;;;;4950998;28;20035;-51
2021/10/15 07:44:21;;;;;;;2.63;0.70;;;;;;;;;;4965350;28;20930;-53
2021/10/15 07:46:46;;;;;;;2.70;0.57;;;;;;;;;;4951868;28;20047;-53
2021/10/15 07:49:12;;;;;;;2.00;0.57;;;;;;;;;;4952224;28;20046;-53
2021/10/15 07:51:38;;;;;;;2.15;0.65;;;;;;;;;;4951925;28;20161;-51
2021/10/15 07:54:04;;;;;;;3.03;0.60;;;;;;;;;;4951970;28;20150;-54
2021/10/15 07:56:32;;;;;;;2.25;0.80;;;;;;;;;;4950828;28;21993;-53
2021/10/15 07:58:58;;;;;;;2.33;0.50;;;;;;;;;;4950426;28;20570;-53
2021/10/15 08:01:24;;;;;;;1.35;0.52;;;;;;;;;;4951077;28;20035;-52
2021/10/15 08:03:50;;;;;;;1.63;0.60;;;;;;;;;;4952269;28;20454;-50
2021/10/15 08:06:16;;;;;;;1.55;0.50;;;;;;;;;;4954947;28;20465;-51
2021/10/15 08:08:41;;;;;;;1.65;0.60;;;;;;;;;;4955321;28;20055;-52
2021/10/15 08:11:09;;;;;;;1.35;0.57;;;;;;;;;;4970403;28;20039;-54
2021/10/15 08:13:35;;;;;;;1.73;0.60;;;;;;;;;;4951705;28;20150;-51
2021/10/15 08:16:01;;;;;;;1.85;0.60;;;;;;;;;;4950788;28;20500;-54
2021/10/15 08:18:27;;;;;;;1.60;0.57;;;;;;;;;;4950610;28;20051;-54
2021/10/15 08:20:57;;;;;;;2.30;0.70;;;;;;;;;;4951716;28;20051;-50
2021/10/15 08:23:24;;;;;;;3.72;0.60;;;;;;;;;;4950036;28;20039;-52
2021/10/15 08:25:50;;;;;;;2.80;0.60;;;;;;;;;;4950208;28;20039;-52
2021/10/15 08:28:16;;;;;;;2.17;0.73;;;;;;;;;;4951799;28;20050;-53
2021/10/15 08:30:41;;;;;;;1.27;0.50;;;;;;;;;;4951668;28;20039;-53
2021/10/15 08:33:07;;;;;;;1.92;0.60;;;;;;;;;;4951544;28;21790;-53
2021/10/15 08:35:33;;;;;;;1.88;0.75;;;;;;;;;;4951056;28;20095;-51
2021/10/15 08:37:59;;;;;;;4.13;0.82;;;;;;;;;;4950679;28;20229;-51
2021/10/15 08:40:27;;;;;;;1.83;0.52;;;;;;;;;;4950211;28;20044;-52
2021/10/15 08:42:55;;;;;;;1.73;0.55;;;;;;;;;;4949524;28;20421;-51
2021/10/15 08:45:28;;;;;;;1.85;0.68;;;;;;;;;;4949703;28;20065;-53
2021/10/15 08:47:54;;;;;;;7.78;0.52;;;;;;;;;;4964742;28;20054;-52
2021/10/15 08:50:20;;;;;;;1.52;0.52;;;;;;;;;;4950114;28;20043;-53
2021/10/15 08:52:46;;;;;;;2.08;0.52;;;;;;;;;;4952028;28;20039;-52
2021/10/15 08:55:12;;;;;;;1.33;0.60;;;;;;;;;;4966000;28;20035;-52
2021/10/15 08:57:38;;;;;;;1.30;0.50;;;;;;;;;;4949827;28;20564;-53
2021/10/15 09:00:25;;;;;;;1.55;0.52;;;;;;;;;;4953318;28;20043;-51
2021/10/15 09:03:10;;;;;;;1.60;0.50;;;;;;;;;;4960605;28;20544;-52
2021/10/15 09:05:36;;;;;;;1.63;0.57;;;;;;;;;;4951212;28;21875;-50
2021/10/15 09:13:36;;;;;;;1.73;0.60;;;;;;;;;;4813665;23;20147;-50
2021/10/15 09:16:05;;;;;;;1.17;0.40;;;;;;;;;;4930006;28;20047;-52
2021/10/15 09:18:32;;;;;;;1.65;0.60;;;;;;;;;;4929414;28;20055;-53
2021/10/15 09:20:58;;;;;;;1.60;0.50;;;;;;;;;;4929728;28;20035;-49
2021/10/15 09:23:45;;;;;;;1.52;0.60;;;;;;;;;;4930191;28;20049;-49
2021/10/15 09:26:11;;;;;;;2.83;0.50;;;;;;;;;;4931184;28;20071;-49
2021/10/15 09:28:41;;;;;;;1.48;0.55;;;;;;;;;;4933423;29;20598;-49
2021/10/15 09:31:07;;;;;;;2.20;0.68;;;;;;;;;;4934585;29;20045;-51
2021/10/15 09:33:33;;;;;;;2.83;0.77;;;;;;;;;;4934176;29;20031;-55
2021/10/15 09:36:08;;;;;;;2.97;0.80;;;;;;;;;;4932326;29;20057;-50
2021/10/15 09:38:34;;;;;;;2.72;0.75;;;;;;;;;;4932717;29;20078;-51
2021/10/15 09:41:00;;;;;;;2.60;0.60;;;;;;;;;;4934121;29;20044;-50
2021/10/15 09:43:33;;;;;;;3.70;0.70;;;;;;;;;;4931369;29;20039;-51
2021/10/15 09:45:59;;;;;;;1.73;0.65;;;;;;;;;;4932683;28;20044;-52
2021/10/15 09:48:26;;;;;;;1.75;0.60;;;;;;;;;;4932778;29;20055;-51
2021/10/15 09:51:10;;;;;;;1.52;0.50;;;;;;;;;;4933716;29;20058;-51
2021/10/15 09:53:36;;;;;;;2.33;0.77;;;;;;;;;;4933206;28;20428;-51
2021/10/15 09:56:02;;;;;;;1.88;0.70;;;;;;;;;;4933279;29;20041;-50
2021/10/15 09:58:28;;;;;;;2.55;0.60;;;;;;;;;;4933001;28;20058;-52
2021/10/15 10:00:54;;;;;;;2.95;0.80;;;;;;;;;;4932672;29;20427;-49
2021/10/15 10:03:21;;;;;;;1.95;0.65;;;;;;;;;;4933975;28;20043;-53
2021/10/15 10:05:47;;;;;;;2.17;0.70;;;;;;;;;;4934127;29;20447;-50
2021/10/15 10:08:14;;;;;;;2.78;0.75;;;;;;;;;;4923220;29;20039;-52
2021/10/15 10:10:40;;;;;;;2.42;0.93;;;;;;;;;;4932765;28;20035;-50
2021/10/15 10:13:07;;;;;;;2.22;0.65;;;;;;;;;;4931471;28;20051;-53
2021/10/15 10:15:35;;;;;;;4.40;0.70;;;;;;;;;;4932864;28;20154;-51
2021/10/15 10:18:29;;;;;;;2.45;0.80;;;;;;;;;;4934663;29;20061;-51
2021/10/15 10:20:54;;;;;;;;;;;;;;;;;;4952798;28;20035;-54
2021/10/15 10:23:27;;;;;;;1.40;0.50;;;;;;;;;;4951797;28;20899;-52
2021/10/15 10:25:58;;;;;;;1.88;0.60;;;;;;;;;;4951675;28;20157;-53
2021/10/15 10:28:24;;;;;;;1.73;0.60;;;;;;;;;;4951611;28;20047;-50
2021/10/15 10:30:51;;;;;;;1.90;0.70;;;;;;;;;;4953781;28;20055;-53
2021/10/15 10:33:17;;;;;;;3.10;0.60;;;;;;;;;;4952748;28;20045;-53
2021/10/15 10:35:44;;;;;;;2.75;0.73;;;;;;;;;;4951073;28;20041;-53
2021/10/15 10:38:19;;;;;;;1.17;0.55;;;;;;;;;;4952205;28;20047;-54
2021/10/15 10:41:00;;;;;;;2.05;0.75;;;;;;;;;;4950765;28;20228;-52
2021/10/15 10:43:26;;;;;;;2.38;0.63;;;;;;;;;;4950632;28;20101;-50
2021/10/15 10:46:10;;;;;;;2.65;0.70;;;;;;;;;;4953149;28;20145;-51
2021/10/15 10:48:52;;;;;;;1.05;0.45;;;;;;;;;;4953083;28;20054;-49
2021/10/15 10:51:28;;;;;;;4.57;0.77;;;;;;;;;;4948745;28;20046;-52
2021/10/15 10:54:05;;;;;;;2.70;0.63;;;;;;;;;;4951085;28;20656;-50
2021/10/15 10:56:37;;;;;;;2.85;0.73;;;;;;;;;;4954984;28;20043;-53
2021/10/15 10:59:19;;;;;;;2.13;0.73;;;;;;;;;;4952729;28;20467;-50
2021/10/15 11:01:46;;;;;;;2.53;0.80;;;;;;;;;;4953981;28;20038;-53
2021/10/15 11:04:30;;;;;;;2.65;0.82;;;;;;;;;;4954191;28;20094;-52
2021/10/15 11:06:57;;;;;;;2.25;0.80;;;;;;;;;;4952573;28;20669;-52
2021/10/15 11:09:40;;;;;;;2.08;0.70;;;;;;;;;;4943884;28;20048;-51
2021/10/15 11:12:06;;;;;;;2.80;0.70;;;;;;;;;;4950289;28;20074;-52
2021/10/15 11:14:54;;;;;;;3.15;0.80;;;;;;;;;;4939178;28;20047;-50
2021/10/15 11:17:46;;;;;;;2.20;0.70;;;;;;;;;;4949345;28;20045;-49
2021/10/15 11:20:14;;;;;;;2.60;0.82;;;;;;;;;;4946008;28;20051;-50
2021/10/15 11:22:41;;;;;;;3.90;1.10;;;;;;;;;;4951291;28;20134;-53
2021/10/15 11:25:08;;;;;;;3.70;1.00;;;;;;;;;;4952117;28;20066;-52
2021/10/15 11:27:34;;;;;;;2.17;0.80;;;;;;;;;;4950098;28;20122;-49
2021/10/15 11:30:00;;;;;;;2.17;0.70;;;;;;;;;;4950596;28;20062;-50
2021/10/15 11:32:37;;;;;;;2.33;0.82;;;;;;;;;;4950786;28;20112;-49
2021/10/15 11:35:06;;;;;;;2.90;0.98;;;;;;;;;;4951644;28;20035;-52
2021/10/15 11:37:49;;;;;;;2.10;0.80;;;;;;;;;;4948751;28;20034;-50
2021/10/15 11:40:16;;;;;;;3.50;1.00;;;;;;;;;;4947881;28;20054;-50
2021/10/15 11:42:42;;;;;;;2.58;0.95;;;;;;;;;;4962621;28;20053;-50
2021/10/15 11:45:31;;;;;;;5.80;0.80;;;;;;;;;;4951648;28;20035;-51
2021/10/15 11:48:08;;;;;;;3.20;1.10;;;;;;;;;;4951724;28;20127;-51
2021/10/15 11:50:38;;;;;;;6.85;1.00;;;;;;;;;;4953536;28;20039;-54
2021/10/15 11:53:04;;;;;;;3.25;1.00;;;;;;;;;;4944792;28;20318;-54
2021/10/15 11:55:37;;;;;;;2.42;0.98;;;;;;;;;;4943084;28;20142;-51
2021/10/15 11:58:20;;;;;;;4.30;0.90;;;;;;;;;;4967235;28;20216;-50
2021/10/15 12:01:00;;;;;;;3.80;0.90;;;;;;;;;;4966710;28;20042;-50
2021/10/15 12:03:33;;;;;;;3.58;1.10;;;;;;;;;;4967569;28;20046;-56
2021/10/15 12:06:18;;;;;;;5.40;1.10;;;;;;;;;;4965878;28;20174;-51
2021/10/15 12:08:44;;;;;;;4.00;1.08;;;;;;;;;;4966259;28;20085;-54
2021/10/15 12:11:13;;;;;;;3.67;1.25;;;;;;;;;;4966751;28;20117;-51
2021/10/15 12:13:38;;;;;;;3.80;1.30;;;;;;;;;;4965737;28;20054;-51
2021/10/15 12:16:24;;;;;;;4.40;1.10;;;;;;;;;;4966036;28;20054;-54
2021/10/15 12:19:16;;;;;;;2.63;1.10;;;;;;;;;;4967101;28;20161;-50
2021/10/15 12:21:43;;;;;;;2.15;0.80;;;;;;;;;;4949999;28;20429;-50
2021/10/15 12:24:14;;;;;;;2.80;0.90;;;;;;;;;;4966893;28;20166;-51
2021/10/15 12:26:40;;;;;;;7.18;1.40;;;;;;;;;;4964284;28;20078;-52
2021/10/15 12:29:24;;;;;;;3.35;1.13;;;;;;;;;;4958021;28;20042;-53
2021/10/15 12:32:06;;;;;;;10.98;4.50;;;;;;;;;;4950166;28;20111;-52
2021/10/15 12:34:32;;;;;;;6.95;1.92;;;;;;;;;;4951079;28;20043;-50
2021/10/15 12:37:07;;;;;;;7.53;1.77;;;;;;;;;;4950170;28;20051;-53
2021/10/15 12:39:33;;;;;;;6.45;1.60;;;;;;;;;;4948709;28;20057;-54
2021/10/15 12:42:13;;;;;;;5.30;1.90;;;;;;;;;;4949264;28;20031;-54
2021/10/15 12:44:39;;;;;;;3.85;1.27;;;;;;;;;;4948688;28;20043;-52
2021/10/15 12:47:07;;;;;;;5.70;1.23;;;;;;;;;;4949119;28;20042;-53
2021/10/15 12:50:08;;;;;;;4.07;1.50;;;;;;;;;;4948915;28;20492;-51
2021/10/15 12:52:38;;;;;;;4.55;1.20;;;;;;;;;;4945557;28;20085;-50
2021/10/15 12:55:07;;;;;;;2.83;1.00;;;;;;;;;;4950442;28;20047;-49
2021/10/15 12:57:34;;;;;;;9.52;1.63;;;;;;;;;;4948201;28;20043;-50
2021/10/15 13:00:09;;;;;;;3.70;1.25;;;;;;;;;;4949987;28;20707;-52
2021/10/15 13:02:35;;;;;;;5.93;1.67;;;;;;;;;;4948540;28;20563;-54
2021/10/15 13:05:02;;;;;;;9.52;1.65;;;;;;;;;;4959806;28;20085;-60
2021/10/15 13:07:29;;;;;;;5.25;1.35;;;;;;;;;;4978660;28;20042;-61
2021/10/15 13:09:55;;;;;;;5.90;1.67;;;;;;;;;;4973522;28;20043;-61
2021/10/15 13:12:21;;;;;;;7.05;1.75;;;;;;;;;;4967218;28;20051;-59
2021/10/15 13:14:47;;;;;;;9.10;1.58;;;;;;;;;;4964789;28;20047;-59
2021/10/15 13:17:13;;;;;;;4.57;1.42;;;;;;;;;;4960905;28;20086;-60
2021/10/15 13:19:39;;;;;;;7.82;1.70;;;;;;;;;;4960312;28;20042;-58
2021/10/15 13:22:05;;;;;;;10.10;1.60;;;;;;;;;;4958671;28;20576;-60
2021/10/15 13:24:31;;;;;;;4.45;1.50;;;;;;;;;;4960924;28;20031;-57
2021/10/15 13:26:57;;;;;;;10.90;1.67;;;;;;;;;;4970610;28;20042;-58
2021/10/15 13:29:23;;;;;;;8.48;1.50;;;;;;;;;;4957621;28;20139;-57
2021/10/15 13:31:49;;;;;;;6.47;1.52;;;;;;;;;;4956937;28;20042;-58
2021/10/15 13:34:15;;;;;;;3.30;1.10;;;;;;;;;;4955721;28;20050;-58
2021/10/15 13:36:43;;;;;;;14.55;1.50;;;;;;;;;;4957212;28;20459;-60
2021/10/15 13:39:11;;;;;;;8.18;1.73;;;;;;;;;;4956745;28;20989;-60
2021/10/15 13:47:05;;;;;;;6.97;1.30;;;;;;;;;;4956018;28;20105;-61
2021/10/15 13:49:49;;;;;;;6.05;1.17;;;;;;;;;;4953801;28;20057;-61
2021/10/15 13:52:16;;;;;;;4.50;1.20;;;;;;;;;;4956652;28;20043;-59
2021/10/15 13:54:43;;;;;;;3.95;1.48;;;;;;;;;;4955300;28;20050;-58
2021/10/15 13:57:11;;;;;;;5.03;1.48;;;;;;;;;;4955262;28;20254;-59
2021/10/15 13:59:50;;;;;;;4.88;1.38;;;;;;;;;;4953361;28;20130;-59
2021/10/15 14:02:16;;;;;;;3.67;1.20;;;;;;;;;;4955285;28;20043;-60
2021/10/15 14:04:43;;;;;;;4.22;1.40;;;;;;;;;;4954395;28;20043;-58
2021/10/15 14:07:12;;;;;;;4.35;1.20;;;;;;;;;;4946685;28;20046;-58
2021/10/15 14:09:38;;;;;;;6.63;1.33;;;;;;;;;;4943421;28;20582;-60
2021/10/15 14:12:06;;;;;;;3.40;1.13;;;;;;;;;;4945540;28;20047;-60
2021/10/15 14:14:32;;;;;;;4.97;1.38;;;;;;;;;;4944206;28;20199;-59
2021/10/15 14:16:58;;;;;;;3.40;1.20;;;;;;;;;;4951687;28;20426;-61
2021/10/15 14:19:25;;;;;;;3.72;1.25;;;;;;;;;;4970515;28;20050;-60
2021/10/15 14:22:00;;;;;;;9.85;1.60;;;;;;;;;;4954999;28;20035;-61
2021/10/15 14:24:26;;;;;;;5.75;1.38;;;;;;;;;;4956548;28;20057;-59
2021/10/15 14:26:52;;;;;;;7.78;1.65;;;;;;;;;;4970711;28;20495;-59
2021/10/15 14:29:18;;;;;;;3.72;1.20;;;;;;;;;;4952721;28;20102;-60
2021/10/15 14:31:44;;;;;;;5.07;1.65;;;;;;;;;;4968868;28;20084;-60
2021/10/15 14:34:10;;;;;;;3.42;1.13;;;;;;;;;;4955284;28;20066;-60
2021/10/15 14:36:36;;;;;;;5.30;1.60;;;;;;;;;;4955996;28;20043;-60
2021/10/15 14:39:03;;;;;;;5.50;1.50;;;;;;;;;;4955191;28;20085;-60
2021/10/15 14:41:29;;;;;;;4.05;1.58;;;;;;;;;;4954802;28;20126;-61
2021/10/15 14:43:56;;;;;;;3.50;1.48;;;;;;;;;;4952145;28;20122;-59
2021/10/15 14:46:22;;;;;;;4.88;1.58;;;;;;;;;;4954619;28;20058;-58
2021/10/15 14:48:48;;;;;;;10.85;1.58;;;;;;;;;;4951752;28;20044;-60
2021/10/15 14:51:15;;;;;;;3.45;1.10;;;;;;;;;;4949961;28;20035;-60
2021/10/15 14:53:41;;;;;;;3.78;1.58;;;;;;;;;;4951757;28;20061;-60
2021/10/15 14:56:08;;;;;;;9.82;1.42;;;;;;;;;;4952572;28;20471;-62
2021/10/15 14:58:34;;;;;;;3.05;1.17;;;;;;;;;;4952315;28;20042;-59
2021/10/15 15:01:02;;;;;;;5.05;1.70;;;;;;;;;;4955347;28;20341;-59
2021/10/15 15:03:28;;;;;;;3.30;1.15;;;;;;;;;;4954080;28;20117;-59
2021/10/15 15:05:54;;;;;;;3.00;1.10;;;;;;;;;;4969339;28;20042;-59
2021/10/15 15:08:20;;;;;;;3.33;1.13;;;;;;;;;;4952238;28;20050;-60
2021/10/15 15:10:45;;;;;;;7.15;1.50;;;;;;;;;;4951012;28;20038;-59
2021/10/15 15:13:11;;;;;;;3.10;1.10;;;;;;;;;;4950073;28;20074;-58
2021/10/15 15:15:37;;;;;;;3.00;1.30;;;;;;;;;;4949622;28;20082;-58